AirNav   Air Wisconsin pilot careers
 
 887 users online  

MU11 Eagle's Landing Airport
Climax Springs, Missouri, USA

GOING TO CLIMAX SPRINGS?


FAA INFORMATION EFFECTIVE 08 NOVEMBER 2018

Location

FAA Identifier: MU11
Lat/Long: 38-13-15.1010N / 093-00-55.7050W
38-13.251683N / 093-00.928417W
38.2208614 / -93.0154736
(estimated)
Elevation: 822 ft. / 251 m (estimated)
Variation: 04E (1985)
From city: 7 miles N of CLIMAX SPRINGS, MO
Time zone: UTC -6 (UTC -5 during Daylight Saving Time)
Zip code: 65326

Airport Operations

Airport use: Private use. Permission required prior to landing
Activation date: 06/1980
Control tower: no
ARTCC: KANSAS CITY CENTER
FSS: COLUMBIA FLIGHT SERVICE STATION
Attendance: UNATNDD
Wind indicator: no
Segmented circle: no

Airport Communications

WX AWOS-3 at RAW (17 nm NW): 118.325 (660-547-3761)

Nearby radio navigation aids

VOR radial/distance  VOR name  Freq  Var
SHYr299/22.3SUNSHINE VOR/DME108.4000E

 
NDB name  Hdg/Dist  Freq  Var  ID
SEDALIA162/30.028103EDMO -.. -- ---
GOLDEN VALLEY104/32.638801EGLY --. .-.. -.--

Airport Services

Runway Information

Runway 13/31

Dimensions: 1800 x 100 ft. / 549 x 30 m
Surface: turf
RUNWAY 13  RUNWAY 31
Traffic pattern: leftleft

Airport Ownership and Management from official FAA records

Ownership: Privately-owned
Owner: MIKE CESARETTI
P O BOX 1208
BLUE SPRINGS, MO 64015
Phone 816-228-0358

Instrument Procedures

There are no published instrument procedures at MU11.

Some nearby airports with instrument procedures:

K15 - Grand Glaize-Osage Beach Airport (17 nm SE)
KRAW - Warsaw Municipal Airport (17 nm NW)
KOZS - Camdenton Memorial-Lake Regional Airport (21 nm SE)
H79 - Eldon Model Airpark (23 nm E)
KAIZ - Lee C Fine Memorial Airport (23 nm E)
 
Loc | Ops | Rwys | IFR | FBO | Links
Com | Nav | Svcs | Stats | Notes

Kansas City Aviation Department
 
Area around MU11 (Eagle's Landing Airport)
 
Road maps at: MapQuest Bing Google
 
Aerial photo
No photo
 
Sectional chart

 
Airport distance calculator
Flying to Eagle's Landing Airport? Find the distance to fly.

From to MU11

Sunrise and sunset
Times for 18-Nov-2018
 Local
(UTC-6)
 Zulu
(UTC)
Morning civil twilight06:2912:29
Sunrise06:5812:58
Sunset16:5722:57
Evening civil twilight17:2523:25

Current date and time
Zulu (UTC)  19-Nov-2018 02:39:12
Local (UTC-6)  18-Nov-2018 20:39:12
 
METAR
KRAW 
17nm NW 
190215Z AUTO 00000KT 10SM BKN017 OVC025 A3020 RMK AO2
KOZS 
21nm SE 
190215Z AUTO 00000KT 2SM BR OVC002 00/00 A3019 RMK AO2
KAIZ 
24nm E 
190156Z AUTO 00000KT 4SM -RA BR OVC005 01/00 A3021 RMK AO2 RAB49 SLP237 P0000 T00060000 FZRANO
KDMO 
31nm N 
190153Z AUTO 00000KT 10SM OVC018 00/M01 A3021 RMK AO2 SLP241 T00001011
KGLY 
33nm W 
190215Z AUTO 00000KT 9SM OVC018 00/M01 A3021 RMK AO2
TAF
KSZL 
38nm NW 
181900Z 1819/2001 35009KT 9999 OVC015 610153 QNH3018INS BECMG 1902/1903 21006KT 9999 BKN040 BKN200 610403 QNH3010INS BECMG 1914/1915 22009KT 9999 SCT250 QNH3008INS TX06/1918Z TNM02/1911Z
NOTAMs
Click for the latest NOTAMs
NOTAMs are issued by the DoD/FAA and will open in a separate window not controlled by AirNav.

 

 
 

Would you like to see your business listed on this page?

 If your business provides an interesting product or service to pilots, flight crews, aircraft, or users of the Eagle's Landing Airport, you should consider listing it here.  To start the listing process, click on the button below
 
Add a business
 

Other Pages about Eagle's Landing Airport

Update a link
 
Copyright © AirNav, LLC. All rights reserved. Privacy Policy  Contact